sensor_id;sensor_type;location;lat;lon;timestamp;pressure;altitude;pressure_sealevel;temperature;humidity
2549;BME280;1284;53.520;10.248;2023-06-05T00:01:10;101588.78;;;17.45;75.08
2549;BME280;1284;53.520;10.248;2023-06-05T00:06:22;101588.59;;;17.21;75.28
2549;BME280;1284;53.520;10.248;2023-06-05T00:08:47;101583.13;;;17.21;75.44
2549;BME280;1284;53.520;10.248;2023-06-05T00:11:13;101584.72;;;17.25;74.93
2549;BME280;1284;53.520;10.248;2023-06-05T00:13:39;101593.97;;;17.17;74.99
2549;BME280;1284;53.520;10.248;2023-06-05T00:16:04;101582.31;;;17.17;75.22
2549;BME280;1284;53.520;10.248;2023-06-05T00:18:30;101589.09;;;16.93;76.37
2549;BME280;1284;53.520;10.248;2023-06-05T00:20:56;101587.53;;;16.92;76.70
2549;BME280;1284;53.520;10.248;2023-06-05T00:23:21;101592.22;;;16.95;76.48
2549;BME280;1284;53.520;10.248;2023-06-05T00:25:47;101589.16;;;17.00;77.12
2549;BME280;1284;53.520;10.248;2023-06-05T00:28:12;101585.31;;;17.04;77.08
2549;BME280;1284;53.520;10.248;2023-06-05T00:30:38;101589.16;;;17.00;76.47
2549;BME280;1284;53.520;10.248;2023-06-05T00:33:04;101583.28;;;16.94;77.01
2549;BME280;1284;53.520;10.248;2023-06-05T00:35:30;101587.50;;;16.88;77.22
2549;BME280;1284;53.520;10.248;2023-06-05T00:37:55;101586.75;;;16.91;76.85
2549;BME280;1284;53.520;10.248;2023-06-05T00:40:21;101596.16;;;16.97;76.87
2549;BME280;1284;53.520;10.248;2023-06-05T00:42:47;101595.75;;;16.95;77.06
2549;BME280;1284;53.520;10.248;2023-06-05T00:45:12;101594.81;;;16.81;76.93
2549;BME280;1284;53.520;10.248;2023-06-05T00:50:24;101593.66;;;16.82;76.82
2549;BME280;1284;53.520;10.248;2023-06-05T00:55:16;101586.75;;;16.91;76.60
2549;BME280;1284;53.520;10.248;2023-06-05T00:57:42;101592.16;;;16.88;76.64
2549;BME280;1284;53.520;10.248;2023-06-05T01:00:10;101592.88;;;16.81;76.93
2549;BME280;1284;53.520;10.248;2023-06-05T01:02:38;101592.09;;;16.81;76.49
2549;BME280;1284;53.520;10.248;2023-06-05T01:05:05;101589.22;;;16.67;76.69
2549;BME280;1284;53.520;10.248;2023-06-05T01:10:21;101583.91;;;16.48;77.42
2549;BME280;1284;53.520;10.248;2023-06-05T01:12:58;101587.25;;;16.34;77.46
2549;BME280;1284;53.520;10.248;2023-06-05T01:15:29;101581.06;;;16.34;77.95
2549;BME280;1284;53.520;10.248;2023-06-05T01:17:59;101579.03;;;16.27;78.24
2549;BME280;1284;53.520;10.248;2023-06-05T01:20:35;101570.88;;;16.27;77.89
2549;BME280;1284;53.520;10.248;2023-06-05T01:23:03;101579.03;;;16.27;77.21
2549;BME280;1284;53.520;10.248;2023-06-05T01:25:29;101572.00;;;16.26;77.30
2549;BME280;1284;53.520;10.248;2023-06-05T01:30:54;101569.22;;;16.19;76.88
2549;BME280;1284;53.520;10.248;2023-06-05T01:33:36;101569.91;;;16.12;77.58
2549;BME280;1284;53.520;10.248;2023-06-05T01:36:11;101569.66;;;16.24;76.79
2549;BME280;1284;53.520;10.248;2023-06-05T01:38:39;101566.88;;;16.17;76.54
2549;BME280;1284;53.520;10.248;2023-06-05T01:41:06;101562.22;;;15.88;77.58
2549;BME280;1284;53.520;10.248;2023-06-05T01:43:32;101562.72;;;15.68;78.56
2549;BME280;1284;53.520;10.248;2023-06-05T01:45:59;101560.66;;;15.87;78.16
2549;BME280;1284;53.520;10.248;2023-06-05T01:48:25;101562.59;;;15.87;77.74
2549;BME280;1284;53.520;10.248;2023-06-05T01:50:58;101565.25;;;15.83;77.23
2549;BME280;1284;53.520;10.248;2023-06-05T01:53:25;101556.84;;;15.92;77.20
2549;BME280;1284;53.520;10.248;2023-06-05T01:55:51;101557.47;;;15.82;77.13
2549;BME280;1284;53.520;10.248;2023-06-05T01:58:24;101560.50;;;15.77;77.42
2549;BME280;1284;53.520;10.248;2023-06-05T02:00:50;101559.31;;;15.74;77.75
2549;BME280;1284;53.520;10.248;2023-06-05T02:03:16;101553.09;;;15.74;77.80
2549;BME280;1284;53.520;10.248;2023-06-05T02:05:42;101553.47;;;15.72;77.83
2549;BME280;1284;53.520;10.248;2023-06-05T02:08:08;101559.72;;;15.76;77.50
2549;BME280;1284;53.520;10.248;2023-06-05T02:13:22;101555.47;;;15.75;77.47
2549;BME280;1284;53.520;10.248;2023-06-05T02:15:50;101548.03;;;15.72;77.58
2549;BME280;1284;53.520;10.248;2023-06-05T02:18:21;101540.63;;;15.69;77.03
2549;BME280;1284;53.520;10.248;2023-06-05T02:20:53;101543.34;;;15.69;77.21
2549;BME280;1284;53.520;10.248;2023-06-05T02:23:19;101547.47;;;15.60;77.42
2549;BME280;1284;53.520;10.248;2023-06-05T02:25:44;101546.16;;;15.50;77.17
2549;BME280;1284;53.520;10.248;2023-06-05T02:28:10;101540.59;;;15.17;78.05
2549;BME280;1284;53.520;10.248;2023-06-05T02:30:36;101537.88;;;15.17;78.93
2549;BME280;1284;53.520;10.248;2023-06-05T02:33:02;101537.59;;;15.25;78.99
2549;BME280;1284;53.520;10.248;2023-06-05T02:35:29;101532.59;;;15.27;78.45
2549;BME280;1284;53.520;10.248;2023-06-05T02:37:55;101523.19;;;15.21;78.81
2549;BME280;1284;53.520;10.248;2023-06-05T02:40:22;101524.91;;;15.33;78.34
2549;BME280;1284;53.520;10.248;2023-06-05T02:42:47;101533.38;;;15.28;78.48
2549;BME280;1284;53.520;10.248;2023-06-05T02:45:13;101522.19;;;15.33;78.31
2549;BME280;1284;53.520;10.248;2023-06-05T02:47:39;101536.28;;;15.16;78.39
2549;BME280;1284;53.520;10.248;2023-06-05T02:50:06;101531.59;;;15.13;79.25
2549;BME280;1284;53.520;10.248;2023-06-05T02:52:35;101524.94;;;14.84;79.92
2549;BME280;1284;53.520;10.248;2023-06-05T02:55:12;101532.44;;;14.94;80.23
2549;BME280;1284;53.520;10.248;2023-06-05T02:57:39;101535.34;;;15.05;79.96
2549;BME280;1284;53.520;10.248;2023-06-05T03:00:11;101534.59;;;15.08;80.24
2549;BME280;1284;53.520;10.248;2023-06-05T03:02:40;101529.72;;;15.17;79.60
2549;BME280;1284;53.520;10.248;2023-06-05T03:05:06;101525.81;;;15.14;80.10
2549;BME280;1284;53.520;10.248;2023-06-05T03:07:33;101533.34;;;15.24;79.53
2549;BME280;1284;53.520;10.248;2023-06-05T03:10:02;101528.44;;;15.33;78.81
2549;BME280;1284;53.520;10.248;2023-06-05T03:12:29;101527.13;;;15.24;78.85
2549;BME280;1284;53.520;10.248;2023-06-05T03:14:54;101526.41;;;15.27;78.52
2549;BME280;1284;53.520;10.248;2023-06-05T03:17:20;101523.97;;;15.22;78.46
2549;BME280;1284;53.520;10.248;2023-06-05T03:19:46;101524.81;;;15.26;78.82
2549;BME280;1284;53.520;10.248;2023-06-05T03:22:12;101518.72;;;15.32;78.45
2549;BME280;1284;53.520;10.248;2023-06-05T03:24:38;101518.03;;;15.39;77.49
2549;BME280;1284;53.520;10.248;2023-06-05T03:27:06;101528.47;;;15.37;77.22
2549;BME280;1284;53.520;10.248;2023-06-05T03:29:31;101523.09;;;15.14;78.28
2549;BME280;1284;53.520;10.248;2023-06-05T03:31:57;101522.19;;;15.07;79.74
2549;BME280;1284;53.520;10.248;2023-06-05T03:34:23;101521.72;;;15.01;79.39
2549;BME280;1284;53.520;10.248;2023-06-05T03:36:52;101521.31;;;14.99;79.60
2549;BME280;1284;53.520;10.248;2023-06-05T03:39:18;101521.72;;;15.01;80.10
2549;BME280;1284;53.520;10.248;2023-06-05T03:41:45;101522.38;;;14.95;79.94
2549;BME280;1284;53.520;10.248;2023-06-05T03:44:10;101510.75;;;14.94;79.92
2549;BME280;1284;53.520;10.248;2023-06-05T03:46:36;101517.38;;;14.97;80.44
2549;BME280;1284;53.520;10.248;2023-06-05T03:49:03;101516.53;;;14.93;80.21
2549;BME280;1284;53.520;10.248;2023-06-05T03:51:35;101518.81;;;14.91;80.61
2549;BME280;1284;53.520;10.248;2023-06-05T03:54:01;101515.47;;;14.97;80.42
2549;BME280;1284;53.520;10.248;2023-06-05T03:56:29;101512.31;;;14.95;80.91
2549;BME280;1284;53.520;10.248;2023-06-05T03:59:01;101517.00;;;14.98;80.33
2549;BME280;1284;53.520;10.248;2023-06-05T04:01:35;101521.47;;;15.10;80.81
2549;BME280;1284;53.520;10.248;2023-06-05T04:04:03;101519.13;;;15.08;81.05
2549;BME280;1284;53.520;10.248;2023-06-05T04:06:31;101516.44;;;15.12;80.46
2549;BME280;1284;53.520;10.248;2023-06-05T04:08:58;101520.09;;;14.97;80.87
2549;BME280;1284;53.520;10.248;2023-06-05T04:11:25;101526.06;;;15.06;81.06
2549;BME280;1284;53.520;10.248;2023-06-05T04:13:56;101530.38;;;15.10;81.43
2549;BME280;1284;53.520;10.248;2023-06-05T04:16:25;101525.47;;;15.19;81.20
2549;BME280;1284;53.520;10.248;2023-06-05T04:18:50;101525.66;;;15.30;80.95
2549;BME280;1284;53.520;10.248;2023-06-05T04:21:16;101527.97;;;15.28;80.65
2549;BME280;1284;53.520;10.248;2023-06-05T04:23:41;101534.22;;;15.32;80.28
2549;BME280;1284;53.520;10.248;2023-06-05T04:26:07;101528.13;;;15.38;80.60
2549;BME280;1284;53.520;10.248;2023-06-05T04:28:32;101536.69;;;15.41;79.83
2549;BME280;1284;53.520;10.248;2023-06-05T04:30:59;101542.19;;;15.44;80.02
2549;BME280;1284;53.520;10.248;2023-06-05T04:33:25;101543.34;;;15.43;80.25
2549;BME280;1284;53.520;10.248;2023-06-05T04:35:50;101534.47;;;15.46;80.55
2549;BME280;1284;53.520;10.248;2023-06-05T04:38:16;101535.25;;;15.47;80.90
2549;BME280;1284;53.520;10.248;2023-06-05T04:40:49;101525.97;;;15.48;80.49
2549;BME280;1284;53.520;10.248;2023-06-05T04:43:16;101531.53;;;15.58;80.84
2549;BME280;1284;53.520;10.248;2023-06-05T04:45:42;101527.47;;;15.45;81.01
2549;BME280;1284;53.520;10.248;2023-06-05T04:48:09;101519.78;;;15.51;81.05
2549;BME280;1284;53.520;10.248;2023-06-05T04:50:35;101532.59;;;15.50;81.38
2549;BME280;1284;53.520;10.248;2023-06-05T04:53:08;101527.69;;;15.59;81.35
2549;BME280;1284;53.520;10.248;2023-06-05T04:55:35;101529.63;;;15.62;81.11
2549;BME280;1284;53.520;10.248;2023-06-05T04:58:00;101529.75;;;15.69;81.28
2549;BME280;1284;53.520;10.248;2023-06-05T05:00:28;101531.06;;;15.79;81.22
2549;BME280;1284;53.520;10.248;2023-06-05T05:02:54;101538.50;;;15.85;81.30
2549;BME280;1284;53.520;10.248;2023-06-05T05:05:20;101540.69;;;16.02;80.86
2549;BME280;1284;53.520;10.248;2023-06-05T05:07:47;101535.34;;;16.13;80.79
2549;BME280;1284;53.520;10.248;2023-06-05T05:10:14;101521.97;;;16.31;80.66
2549;BME280;1284;53.520;10.248;2023-06-05T05:12:40;101523.56;;;16.68;80.78
2549;BME280;1284;53.520;10.248;2023-06-05T05:15:06;101524.78;;;17.22;79.12
2549;BME280;1284;53.520;10.248;2023-06-05T05:17:32;101529.81;;;17.70;77.10
2549;BME280;1284;53.520;10.248;2023-06-05T05:19:58;101535.44;;;18.13;75.21
2549;BME280;1284;53.520;10.248;2023-06-05T05:22:24;101523.88;;;18.47;72.89
2549;BME280;1284;53.520;10.248;2023-06-05T05:24:51;101531.75;;;18.77;71.34
2549;BME280;1284;53.520;10.248;2023-06-05T05:27:16;101534.88;;;19.07;70.24
2549;BME280;1284;53.520;10.248;2023-06-05T05:29:43;101538.38;;;19.43;70.07
2549;BME280;1284;53.520;10.248;2023-06-05T05:32:09;101543.03;;;19.49;68.46
2549;BME280;1284;53.520;10.248;2023-06-05T05:34:35;101543.81;;;19.64;68.59
2549;BME280;1284;53.520;10.248;2023-06-05T05:37:01;101548.88;;;19.69;67.33
2549;BME280;1284;53.520;10.248;2023-06-05T05:39:26;101545.69;;;19.85;67.09
2549;BME280;1284;53.520;10.248;2023-06-05T05:41:52;101541.38;;;19.94;66.93
2549;BME280;1284;53.520;10.248;2023-06-05T05:44:17;101546.00;;;20.15;66.17
2549;BME280;1284;53.520;10.248;2023-06-05T05:46:45;101547.47;;;20.37;65.74
2549;BME280;1284;53.520;10.248;2023-06-05T05:51:37;101551.22;;;20.64;65.85
2549;BME280;1284;53.520;10.248;2023-06-05T05:54:03;101553.81;;;20.85;65.01
2549;BME280;1284;53.520;10.248;2023-06-05T05:56:28;101543.69;;;20.79;64.76
2549;BME280;1284;53.520;10.248;2023-06-05T05:58:54;101551.88;;;20.82;64.27
2549;BME280;1284;53.520;10.248;2023-06-05T06:01:19;101563.16;;;20.91;64.08
2549;BME280;1284;53.520;10.248;2023-06-05T06:03:47;101552.16;;;20.95;64.04
2549;BME280;1284;53.520;10.248;2023-06-05T06:06:12;101557.25;;;20.96;63.19
2549;BME280;1284;53.520;10.248;2023-06-05T06:08:38;101556.81;;;21.05;63.30
2549;BME280;1284;53.520;10.248;2023-06-05T06:11:03;101562.97;;;21.19;63.42
2549;BME280;1284;53.520;10.248;2023-06-05T06:13:32;101564.44;;;21.31;62.77
2549;BME280;1284;53.520;10.248;2023-06-05T06:15:59;101564.41;;;21.34;62.42
2549;BME280;1284;53.520;10.248;2023-06-05T06:18:24;101563.91;;;21.46;62.97
2549;BME280;1284;53.520;10.248;2023-06-05T06:20:50;101562.19;;;21.60;62.76
2549;BME280;1284;53.520;10.248;2023-06-05T06:23:16;101562.56;;;21.62;62.89
2549;BME280;1284;53.520;10.248;2023-06-05T06:25:41;101557.81;;;21.66;62.24
2549;BME280;1284;53.520;10.248;2023-06-05T06:28:07;101563.69;;;21.68;61.55
2549;BME280;1284;53.520;10.248;2023-06-05T06:30:33;101557.66;;;21.80;60.94
2549;BME280;1284;53.520;10.248;2023-06-05T06:32:58;101560.28;;;21.94;60.94
2549;BME280;1284;53.520;10.248;2023-06-05T06:35:24;101553.63;;;21.95;60.83
2549;BME280;1284;53.520;10.248;2023-06-05T06:37:53;101565.72;;;21.97;60.20
2549;BME280;1284;53.520;10.248;2023-06-05T06:40:20;101559.84;;;21.99;60.75
2549;BME280;1284;53.520;10.248;2023-06-05T06:42:45;101560.91;;;22.05;61.12
2549;BME280;1284;53.520;10.248;2023-06-05T06:45:20;101558.16;;;22.08;60.51
2549;BME280;1284;53.520;10.248;2023-06-05T06:47:45;101567.34;;;22.25;61.35
2549;BME280;1284;53.520;10.248;2023-06-05T06:50:12;101567.59;;;22.34;60.16
2549;BME280;1284;53.520;10.248;2023-06-05T06:52:38;101567.91;;;22.43;60.64
2549;BME280;1284;53.520;10.248;2023-06-05T06:55:05;101563.88;;;22.51;59.16
2549;BME280;1284;53.520;10.248;2023-06-05T06:57:31;101562.78;;;22.45;59.48
2549;BME280;1284;53.520;10.248;2023-06-05T06:59:56;101563.13;;;22.47;59.01
2549;BME280;1284;53.520;10.248;2023-06-05T07:02:24;101564.94;;;22.61;58.65
2549;BME280;1284;53.520;10.248;2023-06-05T07:04:50;101562.84;;;22.68;57.76
2549;BME280;1284;53.520;10.248;2023-06-05T07:07:19;101565.69;;;22.88;57.58
2549;BME280;1284;53.520;10.248;2023-06-05T07:09:49;101567.53;;;22.94;56.92
2549;BME280;1284;53.520;10.248;2023-06-05T07:12:15;101566.19;;;23.06;57.98
2549;BME280;1284;53.520;10.248;2023-06-05T07:14:41;101564.00;;;23.20;58.75
2549;BME280;1284;53.520;10.248;2023-06-05T07:17:07;101566.25;;;23.25;58.86
2549;BME280;1284;53.520;10.248;2023-06-05T07:19:34;101568.78;;;23.40;57.80
2549;BME280;1284;53.520;10.248;2023-06-05T07:22:02;101570.88;;;23.55;55.81
2549;BME280;1284;53.520;10.248;2023-06-05T07:24:29;101565.38;;;23.55;53.36
2549;BME280;1284;53.520;10.248;2023-06-05T07:27:00;101577.09;;;23.59;54.15
2549;BME280;1284;53.520;10.248;2023-06-05T07:29:26;101570.66;;;23.66;53.52
2549;BME280;1284;53.520;10.248;2023-06-05T07:31:53;101568.50;;;23.77;54.38
2549;BME280;1284;53.520;10.248;2023-06-05T07:34:19;101573.50;;;23.82;52.42
2549;BME280;1284;53.520;10.248;2023-06-05T07:36:46;101570.59;;;23.89;52.63
2549;BME280;1284;53.520;10.248;2023-06-05T07:39:13;101565.72;;;23.96;50.94
2549;BME280;1284;53.520;10.248;2023-06-05T07:41:39;101569.16;;;24.04;51.57
2549;BME280;1284;53.520;10.248;2023-06-05T07:44:08;101569.38;;;24.13;51.36
2549;BME280;1284;53.520;10.248;2023-06-05T07:46:33;101569.97;;;24.40;52.04
2549;BME280;1284;53.520;10.248;2023-06-05T07:49:02;101572.56;;;24.47;51.38
2549;BME280;1284;53.520;10.248;2023-06-05T07:51:28;101570.38;;;24.58;50.97
2549;BME280;1284;53.520;10.248;2023-06-05T07:53:53;101569.25;;;24.72;50.79
2549;BME280;1284;53.520;10.248;2023-06-05T07:56:19;101574.44;;;24.86;49.66
2549;BME280;1284;53.520;10.248;2023-06-05T07:58:44;101574.81;;;24.88;49.42
2549;BME280;1284;53.520;10.248;2023-06-05T08:01:10;101574.78;;;24.72;49.88
2549;BME280;1284;53.520;10.248;2023-06-05T08:03:37;101573.00;;;24.81;49.09
2549;BME280;1284;53.520;10.248;2023-06-05T08:06:03;101573.88;;;24.94;48.83
2549;BME280;1284;53.520;10.248;2023-06-05T08:08:28;101567.47;;;24.97;47.60
2549;BME280;1284;53.520;10.248;2023-06-05T08:10:55;101571.03;;;25.14;47.64
2549;BME280;1284;53.520;10.248;2023-06-05T08:13:21;101573.00;;;25.30;45.28
2549;BME280;1284;53.520;10.248;2023-06-05T08:15:46;101568.84;;;25.05;46.10
2549;BME280;1284;53.520;10.248;2023-06-05T08:18:11;101566.25;;;25.15;47.61
2549;BME280;1284;53.520;10.248;2023-06-05T08:20:37;101566.78;;;25.26;47.14
2549;BME280;1284;53.520;10.248;2023-06-05T08:23:03;101563.75;;;25.36;47.31
2549;BME280;1284;53.520;10.248;2023-06-05T08:25:30;101563.38;;;25.66;46.43
2549;BME280;1284;53.520;10.248;2023-06-05T08:27:56;101568.81;;;25.54;47.35
2549;BME280;1284;53.520;10.248;2023-06-05T08:30:21;101569.13;;;25.72;47.19
2549;BME280;1284;53.520;10.248;2023-06-05T08:32:47;101562.91;;;25.97;46.61
2549;BME280;1284;53.520;10.248;2023-06-05T08:35:12;101552.56;;;26.13;44.78
2549;BME280;1284;53.520;10.248;2023-06-05T08:37:38;101555.94;;;26.21;45.75
2549;BME280;1284;53.520;10.248;2023-06-05T08:40:04;101552.50;;;26.29;45.54
2549;BME280;1284;53.520;10.248;2023-06-05T08:42:39;101550.97;;;26.53;44.38
2549;BME280;1284;53.520;10.248;2023-06-05T08:45:06;101559.94;;;26.57;44.95
2549;BME280;1284;53.520;10.248;2023-06-05T08:47:35;101554.97;;;26.65;45.31
2549;BME280;1284;53.520;10.248;2023-06-05T08:50:06;101560.38;;;26.68;45.37
2549;BME280;1284;53.520;10.248;2023-06-05T08:52:37;101556.28;;;26.98;45.41
2549;BME280;1284;53.520;10.248;2023-06-05T08:55:05;101551.00;;;26.78;44.36
2549;BME280;1284;53.520;10.248;2023-06-05T08:57:38;101552.00;;;26.85;44.21
2549;BME280;1284;53.520;10.248;2023-06-05T09:00:06;101553.19;;;26.96;44.77
2549;BME280;1284;53.520;10.248;2023-06-05T09:02:41;101543.84;;;27.15;45.12
2549;BME280;1284;53.520;10.248;2023-06-05T09:05:15;101540.13;;;27.43;44.14
2549;BME280;1284;53.520;10.248;2023-06-05T09:07:41;101560.47;;;27.49;43.08
2549;BME280;1284;53.520;10.248;2023-06-05T09:10:21;101548.28;;;27.47;43.64
2549;BME280;1284;53.520;10.248;2023-06-05T09:13:02;101543.44;;;27.73;43.21
2549;BME280;1284;53.520;10.248;2023-06-05T09:15:31;101536.91;;;27.88;42.30
2549;BME280;1284;53.520;10.248;2023-06-05T09:20:31;101539.53;;;28.04;42.38
2549;BME280;1284;53.520;10.248;2023-06-05T09:23:01;101544.59;;;28.06;42.43
2549;BME280;1284;53.520;10.248;2023-06-05T09:25:26;101534.66;;;28.17;42.19
2549;BME280;1284;53.520;10.248;2023-06-05T09:28:15;101540.00;;;28.42;42.78
2549;BME280;1284;53.520;10.248;2023-06-05T09:30:53;101542.50;;;28.49;42.93
2549;BME280;1284;53.520;10.248;2023-06-05T09:33:20;101537.03;;;28.28;40.89
2549;BME280;1284;53.520;10.248;2023-06-05T09:35:46;101536.47;;;28.42;41.12
2549;BME280;1284;53.520;10.248;2023-06-05T09:38:25;101528.78;;;28.15;40.78
2549;BME280;1284;53.520;10.248;2023-06-05T09:40:52;101529.13;;;27.96;40.94
2549;BME280;1284;53.520;10.248;2023-06-05T09:43:21;101530.94;;;28.11;40.80
2549;BME280;1284;53.520;10.248;2023-06-05T09:45:49;101537.78;;;28.28;40.38
2549;BME280;1284;53.520;10.248;2023-06-05T09:48:15;101533.41;;;28.49;39.03
2549;BME280;1284;53.520;10.248;2023-06-05T09:50:41;101523.91;;;28.59;39.19
2549;BME280;1284;53.520;10.248;2023-06-05T09:53:13;101525.78;;;28.62;41.13
2549;BME280;1284;53.520;10.248;2023-06-05T09:55:40;101534.34;;;28.86;41.02
2549;BME280;1284;53.520;10.248;2023-06-05T09:58:05;101528.69;;;29.16;39.61
2549;BME280;1284;53.520;10.248;2023-06-05T10:00:38;101535.03;;;29.35;38.37
2549;BME280;1284;53.520;10.248;2023-06-05T10:03:08;101523.59;;;29.60;39.36
2549;BME280;1284;53.520;10.248;2023-06-05T10:05:40;101534.84;;;29.93;38.45
2549;BME280;1284;53.520;10.248;2023-06-05T10:08:06;101532.22;;;29.98;38.67
2549;BME280;1284;53.520;10.248;2023-06-05T10:10:32;101524.63;;;29.99;38.26
2549;BME280;1284;53.520;10.248;2023-06-05T10:13:00;101521.38;;;30.00;38.81
2549;BME280;1284;53.520;10.248;2023-06-05T10:15:27;101528.59;;;30.16;38.25
2549;BME280;1284;53.520;10.248;2023-06-05T10:17:56;101516.91;;;30.03;36.58
2549;BME280;1284;53.520;10.248;2023-06-05T10:20:21;101525.75;;;29.65;37.19
2549;BME280;1284;53.520;10.248;2023-06-05T10:22:48;101522.34;;;29.70;37.05
2549;BME280;1284;53.520;10.248;2023-06-05T10:25:15;101511.53;;;29.81;37.44
2549;BME280;1284;53.520;10.248;2023-06-05T10:30:32;101509.31;;;30.12;37.00
2549;BME280;1284;53.520;10.248;2023-06-05T10:33:54;101513.81;;;30.01;36.51
2549;BME280;1284;53.520;10.248;2023-06-05T10:38:57;101498.47;;;30.14;36.81
2549;BME280;1284;53.520;10.248;2023-06-05T10:41:25;101510.25;;;30.51;36.61
2549;BME280;1284;53.520;10.248;2023-06-05T10:43:53;101507.38;;;30.37;35.37
2549;BME280;1284;53.520;10.248;2023-06-05T10:51:34;101507.28;;;30.87;36.31
2549;BME280;1284;53.520;10.248;2023-06-05T10:54:07;101508.13;;;31.17;35.81
2549;BME280;1284;53.520;10.248;2023-06-05T10:59:17;101498.44;;;31.13;34.33
2549;BME280;1284;53.520;10.248;2023-06-05T11:07:27;101497.50;;;30.26;35.26
2549;BME280;1284;53.520;10.248;2023-06-05T11:10:21;101482.56;;;29.73;35.03
2549;BME280;1284;53.520;10.248;2023-06-05T11:15:13;101485.06;;;29.26;35.64
2549;BME280;1284;53.520;10.248;2023-06-05T11:17:40;101471.75;;;29.12;35.84
2549;BME280;1284;53.520;10.248;2023-06-05T11:20:52;101471.00;;;28.93;36.55
2549;BME280;1284;53.520;10.248;2023-06-05T11:27:51;101468.88;;;29.24;36.50
2549;BME280;1284;53.520;10.248;2023-06-05T11:30:22;101472.38;;;29.52;35.76
2549;BME280;1284;53.520;10.248;2023-06-05T11:32:49;101460.38;;;29.28;35.92
2549;BME280;1284;53.520;10.248;2023-06-05T11:35:20;101462.19;;;29.67;36.17
2549;BME280;1284;53.520;10.248;2023-06-05T11:37:46;101458.66;;;29.58;35.68
2549;BME280;1284;53.520;10.248;2023-06-05T11:40:23;101464.06;;;29.43;35.37
2549;BME280;1284;53.520;10.248;2023-06-05T11:42:49;101454.91;;;29.70;36.77
2549;BME280;1284;53.520;10.248;2023-06-05T11:45:15;101447.94;;;29.92;35.84
2549;BME280;1284;53.520;10.248;2023-06-05T11:47:40;101445.63;;;30.56;36.29
2549;BME280;1284;53.520;10.248;2023-06-05T11:50:09;101451.63;;;30.87;36.54
2549;BME280;1284;53.520;10.248;2023-06-05T11:52:36;101459.13;;;30.96;33.46
2549;BME280;1284;53.520;10.248;2023-06-05T11:55:15;101448.78;;;31.11;34.32
2549;BME280;1284;53.520;10.248;2023-06-05T11:57:42;101449.84;;;31.28;34.00
2549;BME280;1284;53.520;10.248;2023-06-05T12:00:10;101441.69;;;31.10;32.72
2549;BME280;1284;53.520;10.248;2023-06-05T12:02:43;101446.88;;;31.17;32.37
2549;BME280;1284;53.520;10.248;2023-06-05T12:05:09;101440.47;;;31.26;31.81
2549;BME280;1284;53.520;10.248;2023-06-05T12:07:36;101436.13;;;31.25;31.95
2549;BME280;1284;53.520;10.248;2023-06-05T12:10:09;101441.06;;;31.30;32.20
2549;BME280;1284;53.520;10.248;2023-06-05T12:12:51;101438.41;;;30.97;31.92
2549;BME280;1284;53.520;10.248;2023-06-05T12:15:20;101441.84;;;30.45;33.15
2549;BME280;1284;53.520;10.248;2023-06-05T12:20:15;101436.31;;;30.36;32.29
2549;BME280;1284;53.520;10.248;2023-06-05T12:22:40;101438.28;;;30.44;32.72
2549;BME280;1284;53.520;10.248;2023-06-05T12:25:24;101446.53;;;30.62;32.01
2549;BME280;1284;53.520;10.248;2023-06-05T12:27:49;101433.91;;;30.76;32.26
2549;BME280;1284;53.520;10.248;2023-06-05T12:30:15;101426.59;;;30.78;32.91
2549;BME280;1284;53.520;10.248;2023-06-05T12:32:43;101430.91;;;31.03;32.56
2549;BME280;1284;53.520;10.248;2023-06-05T12:38:08;101421.53;;;31.15;31.73
2549;BME280;1284;53.520;10.248;2023-06-05T12:40:33;101425.13;;;30.92;33.32
2549;BME280;1284;53.520;10.248;2023-06-05T12:42:59;101424.09;;;31.04;34.32
2549;BME280;1284;53.520;10.248;2023-06-05T12:45:24;101425.41;;;30.70;33.92
2549;BME280;1284;53.520;10.248;2023-06-05T12:47:50;101423.41;;;30.71;33.73
2549;BME280;1284;53.520;10.248;2023-06-05T12:50:16;101419.16;;;30.84;33.96
2549;BME280;1284;53.520;10.248;2023-06-05T12:52:42;101412.97;;;31.04;34.38
2549;BME280;1284;53.520;10.248;2023-06-05T12:55:08;101423.22;;;30.98;33.71
2549;BME280;1284;53.520;10.248;2023-06-05T12:57:34;101412.88;;;31.13;33.46
2549;BME280;1284;53.520;10.248;2023-06-05T13:00:04;101407.97;;;31.08;32.94
2549;BME280;1284;53.520;10.248;2023-06-05T13:02:37;101412.06;;;30.83;33.09
2549;BME280;1284;53.520;10.248;2023-06-05T13:05:05;101413.22;;;30.91;33.95
2549;BME280;1284;53.520;10.248;2023-06-05T13:07:31;101409.97;;;30.93;32.74
2549;BME280;1284;53.520;10.248;2023-06-05T13:09:57;101406.09;;;30.52;32.92
2549;BME280;1284;53.520;10.248;2023-06-05T13:12:22;101408.44;;;30.68;33.91
2549;BME280;1284;53.520;10.248;2023-06-05T13:14:48;101406.09;;;30.19;33.67
2549;BME280;1284;53.520;10.248;2023-06-05T13:17:14;101394.38;;;30.15;33.51
2549;BME280;1284;53.520;10.248;2023-06-05T13:19:39;101392.59;;;30.36;34.37
2549;BME280;1284;53.520;10.248;2023-06-05T13:22:05;101400.13;;;30.45;34.31
2549;BME280;1284;53.520;10.248;2023-06-05T13:24:31;101395.59;;;30.47;33.91
2549;BME280;1284;53.520;10.248;2023-06-05T13:26:56;101395.00;;;30.67;33.95
2549;BME280;1284;53.520;10.248;2023-06-05T13:29:22;101393.00;;;30.67;34.68
2549;BME280;1284;53.520;10.248;2023-06-05T13:31:48;101393.81;;;30.59;34.26
2549;BME280;1284;53.520;10.248;2023-06-05T13:34:13;101394.47;;;30.54;33.89
2549;BME280;1284;53.520;10.248;2023-06-05T13:36:39;101387.25;;;30.23;33.80
2549;BME280;1284;53.520;10.248;2023-06-05T13:39:04;101383.16;;;30.10;33.93
2549;BME280;1284;53.520;10.248;2023-06-05T13:41:30;101379.81;;;30.20;34.09
2549;BME280;1284;53.520;10.248;2023-06-05T13:43:55;101385.34;;;30.30;34.15
2549;BME280;1284;53.520;10.248;2023-06-05T13:46:23;101387.63;;;30.07;32.68
2549;BME280;1284;53.520;10.248;2023-06-05T13:48:49;101373.78;;;29.98;33.86
2549;BME280;1284;53.520;10.248;2023-06-05T13:51:14;101380.69;;;30.03;33.46
2549;BME280;1284;53.520;10.248;2023-06-05T13:53:41;101377.00;;;29.73;34.65
2549;BME280;1284;53.520;10.248;2023-06-05T13:56:06;101368.34;;;29.71;35.14